Terminal Aerodrome Forecast
Issued by NWS Sioux Falls, SD

Home | Current Version | Previous Version | Graphics & Text | Print | Product List | Glossary Off
Versions: 1 2 3 4 5 6 7 8 9 10 11 12 13 14 15 16 17 18 19 20 21 22 23 24 25 26 27 28 29 30 31 32

000
FTUS43 KFSD 261729
TAFSUX
TAF
KSUX 261729Z 2618/2718 15009KT P6SM SCT120
     FM270300 12008KT P6SM BKN150
     FM271500 15013G19KT P6SM SCT150=

USA.gov is the U.S. government's official web portal to all federal, state and local government web resources and services.